Time;durP1;ratioP1;P1;durP2;ratioP2;P2;SDS_P1;SDS_P2;PMS_P1;PMS_P2;Temp;Humidity;BMP_temperature;BMP_pressure;BME280_temperature;BME280_humidity;BME280_pressure;Samples;Min_cycle;Max_cycle;Signal;HPM_P1;HPM_P2
2024/04/26 00:00:22;;;;;;;4.63;4.23;;;8.40;99.90;;;;;;5370817;26;20209;-72
2024/04/26 00:02:48;;;;;;;6.63;4.10;;;8.40;99.90;;;;;;5370273;26;20217;-72
2024/04/26 00:05:13;;;;;;;6.00;4.33;;;8.40;99.90;;;;;;5370016;26;20712;-72
2024/04/26 00:07:39;;;;;;;9.30;4.73;;;8.40;99.90;;;;;;5370075;26;20689;-72
2024/04/26 00:10:05;;;;;;;5.20;4.67;;;8.40;99.90;;;;;;5370579;26;20214;-72
2024/04/26 00:12:30;;;;;;;5.50;4.40;;;8.40;99.90;;;;;;5370043;26;20701;-71
2024/04/26 00:14:56;;;;;;;4.50;4.20;;;8.40;99.90;;;;;;5369860;26;20285;-71
2024/04/26 00:17:21;;;;;;;5.30;4.80;;;8.30;99.90;;;;;;5370259;26;20321;-72
2024/04/26 00:19:47;;;;;;;6.20;4.10;;;8.30;99.90;;;;;;5369906;26;20603;-72
2024/04/26 00:22:12;;;;;;;6.77;4.40;;;8.30;99.90;;;;;;5369742;26;20569;-72
2024/04/26 00:24:41;;;;;;;5.57;4.90;;;8.40;99.90;;;;;;5369726;26;20221;-71
2024/04/26 00:27:07;;;;;;;4.53;4.13;;;8.40;99.90;;;;;;5369550;26;20279;-72
2024/04/26 00:29:33;;;;;;;5.07;4.37;;;8.40;99.90;;;;;;5370018;26;20269;-72
2024/04/26 00:31:58;;;;;;;5.43;4.53;;;8.40;99.90;;;;;;5369480;26;20213;-72
2024/04/26 00:34:24;;;;;;;5.10;4.70;;;8.40;99.90;;;;;;5369794;26;20709;-72
2024/04/26 00:36:49;;;;;;;6.70;3.87;;;8.40;99.90;;;;;;5369953;26;20210;-72
2024/04/26 00:39:15;;;;;;;4.73;4.33;;;8.30;99.90;;;;;;5369997;26;20209;-71
2024/04/26 00:41:41;;;;;;;7.27;4.30;;;8.30;99.90;;;;;;5369852;26;20210;-72
2024/04/26 00:44:12;;;;;;;4.57;4.20;;;8.30;99.90;;;;;;5369842;26;20213;-72
2024/04/26 00:46:41;;;;;;;5.17;4.53;;;8.30;99.90;;;;;;5369219;26;20221;-71
2024/04/26 00:49:06;;;;;;;4.60;4.30;;;8.30;99.90;;;;;;5369497;26;20385;-71
2024/04/26 00:51:32;;;;;;;4.57;4.27;;;8.30;99.90;;;;;;5369322;26;20246;-71
2024/04/26 00:53:59;;;;;;;5.03;4.10;;;8.30;99.90;;;;;;5369407;26;20271;-71
2024/04/26 00:56:26;;;;;;;9.20;4.10;;;8.30;99.90;;;;;;5369582;26;20751;-72
2024/04/26 00:58:54;;;;;;;7.27;4.23;;;8.30;99.90;;;;;;5368964;26;20303;-72
2024/04/26 01:01:20;;;;;;;5.80;4.50;;;8.30;99.90;;;;;;5338499;26;20221;-72
2024/04/26 01:03:46;;;;;;;5.93;4.23;;;8.30;99.90;;;;;;5369235;26;20749;-72
2024/04/26 01:06:11;;;;;;;6.73;4.33;;;8.20;99.90;;;;;;5369492;26;20708;-72
2024/04/26 01:08:37;;;;;;;4.33;3.93;;;8.20;99.90;;;;;;5367635;26;20256;-72
2024/04/26 01:11:04;;;;;;;4.93;4.30;;;8.20;99.90;;;;;;5368930;26;20264;-72
2024/04/26 01:13:33;;;;;;;5.63;4.70;;;8.20;99.90;;;;;;5368599;26;20294;-72
2024/04/26 01:15:59;;;;;;;4.83;4.43;;;8.20;99.90;;;;;;5369144;26;20225;-72
2024/04/26 01:18:24;;;;;;;7.70;4.30;;;8.20;99.90;;;;;;5369725;26;20309;-72
2024/04/26 01:20:50;;;;;;;6.80;4.50;;;8.20;99.90;;;;;;5368863;26;20202;-72
2024/04/26 01:23:17;;;;;;;6.73;4.47;;;8.20;99.90;;;;;;5368904;26;20214;-72
2024/04/26 01:26:03;;;;;;;9.23;4.57;;;8.20;99.90;;;;;;5338128;26;20233;-71
2024/04/26 01:28:30;;;;;;;7.17;4.57;;;8.20;99.90;;;;;;5369942;26;20209;-72
2024/04/26 01:30:56;;;;;;;5.80;4.03;;;8.20;99.90;;;;;;5368699;26;20248;-72
2024/04/26 01:33:21;;;;;;;5.17;4.20;;;8.10;99.90;;;;;;5369039;26;20267;-71
2024/04/26 01:35:47;;;;;;;5.67;4.80;;;8.10;99.90;;;;;;5368851;26;20213;-72
2024/04/26 01:38:13;;;;;;;6.00;5.13;;;8.10;99.90;;;;;;5368908;26;20221;-72
2024/04/26 01:40:38;;;;;;;5.77;5.27;;;8.10;99.90;;;;;;5368522;26;20225;-72
2024/04/26 01:43:05;;;;;;;5.73;5.10;;;8.10;99.90;;;;;;5368917;26;20221;-72
2024/04/26 01:45:30;;;;;;;10.33;6.00;;;8.10;99.90;;;;;;5369183;26;20751;-72
2024/04/26 01:47:56;;;;;;;4.50;4.20;;;8.10;99.90;;;;;;5368852;26;20218;-73
2024/04/26 01:50:22;;;;;;;6.37;5.07;;;8.10;99.90;;;;;;5368794;26;20213;-72
2024/04/26 01:52:49;;;;;;;6.23;5.63;;;8.10;99.90;;;;;;5368280;26;20226;-72
2024/04/26 01:55:15;;;;;;;5.90;5.40;;;8.10;99.90;;;;;;5368328;26;20222;-72
2024/04/26 01:57:41;;;;;;;5.53;5.03;;;8.10;99.90;;;;;;5368915;26;20263;-72
2024/04/26 02:00:08;;;;;;;5.47;5.07;;;8.10;99.90;;;;;;5368643;26;20269;-72
2024/04/26 02:02:34;;;;;;;5.20;4.57;;;8.00;99.90;;;;;;5368489;26;20268;-72
2024/04/26 02:04:59;;;;;;;4.70;4.23;;;8.10;99.90;;;;;;5368447;26;20251;-73
2024/04/26 02:07:25;;;;;;;4.50;4.10;;;8.00;99.90;;;;;;5369156;26;20560;-72
2024/04/26 02:09:51;;;;;;;4.73;4.23;;;8.00;99.90;;;;;;5368394;26;20406;-72
2024/04/26 02:12:17;;;;;;;7.10;4.40;;;8.00;99.90;;;;;;5368766;26;20583;-72
2024/04/26 02:14:43;;;;;;;6.23;4.90;;;8.10;99.90;;;;;;5368484;26;20658;-72
2024/04/26 02:17:09;;;;;;;5.37;4.70;;;8.10;99.90;;;;;;5368691;26;20281;-72
2024/04/26 02:19:34;;;;;;;5.30;4.47;;;8.10;99.90;;;;;;5370450;26;20210;-72
2024/04/26 02:22:00;;;;;;;6.27;4.30;;;8.10;99.90;;;;;;5371970;26;20378;-72
2024/04/26 02:24:25;;;;;;;5.37;4.13;;;8.10;99.90;;;;;;5372011;26;20318;-72
2024/04/26 02:26:51;;;;;;;4.83;4.30;;;8.10;99.90;;;;;;5371882;26;20205;-72
2024/04/26 02:29:16;;;;;;;6.20;4.87;;;8.10;99.90;;;;;;5371791;26;20619;-72
2024/04/26 02:31:42;;;;;;;6.43;4.30;;;8.10;99.90;;;;;;5371679;26;20233;-72
2024/04/26 02:34:08;;;;;;;8.63;4.97;;;8.10;99.90;;;;;;5372241;26;20717;-72
2024/04/26 02:36:33;;;;;;;4.93;4.43;;;8.10;99.90;;;;;;5371656;26;20605;-72
2024/04/26 02:38:59;;;;;;;4.60;4.30;;;8.10;99.90;;;;;;5371595;26;20602;-72
2024/04/26 02:41:25;;;;;;;7.53;4.70;;;8.10;99.90;;;;;;5371643;26;20205;-72
2024/04/26 02:43:51;;;;;;;4.80;4.30;;;8.20;99.90;;;;;;5371337;26;20255;-72
2024/04/26 02:46:16;;;;;;;5.37;4.70;;;8.20;99.90;;;;;;5371147;26;20253;-72
2024/04/26 02:48:42;;;;;;;5.47;4.30;;;8.20;99.90;;;;;;5371325;26;20213;-72
2024/04/26 02:51:11;;;;;;;11.07;4.83;;;8.20;99.90;;;;;;5371075;26;20382;-72
2024/04/26 02:53:39;;;;;;;7.87;4.77;;;8.20;99.90;;;;;;5371474;26;20225;-72
2024/04/26 02:56:05;;;;;;;7.27;4.63;;;8.20;99.90;;;;;;5371779;26;20217;-71
2024/04/26 02:58:31;;;;;;;6.47;4.33;;;8.20;99.90;;;;;;5371620;26;20747;-72
2024/04/26 03:00:57;;;;;;;7.30;4.80;;;8.20;99.90;;;;;;5371061;26;20213;-72
2024/04/26 03:03:23;;;;;;;4.67;4.27;;;8.30;99.90;;;;;;5371228;26;20749;-72
2024/04/26 03:05:48;;;;;;;6.80;4.80;;;8.30;99.90;;;;;;5371091;26;20267;-72
2024/04/26 03:08:14;;;;;;;6.90;4.83;;;8.30;99.90;;;;;;5371583;26;20209;-72
2024/04/26 03:10:39;;;;;;;7.73;5.40;;;8.30;99.90;;;;;;5371237;26;20273;-72
2024/04/26 03:13:06;;;;;;;9.37;5.37;;;8.30;99.90;;;;;;5370865;26;20233;-72
2024/04/26 03:15:32;;;;;;;6.17;5.57;;;8.30;99.90;;;;;;5371851;26;20265;-72
2024/04/26 03:17:57;;;;;;;9.87;7.10;;;8.20;99.90;;;;;;5371430;26;20759;-72
2024/04/26 03:20:24;;;;;;;5.53;5.03;;;8.20;99.90;;;;;;5371156;26;20221;-72
2024/04/26 03:22:49;;;;;;;5.83;5.43;;;8.20;99.90;;;;;;5370979;26;20276;-72
2024/04/26 03:25:15;;;;;;;7.10;5.03;;;8.20;99.90;;;;;;5371246;26;20214;-72
2024/04/26 03:27:41;;;;;;;5.40;4.87;;;8.20;99.90;;;;;;5371173;26;20619;-72
2024/04/26 03:30:07;;;;;;;5.87;5.10;;;8.20;99.90;;;;;;5369929;26;20218;-72
2024/04/26 03:32:32;;;;;;;7.10;5.17;;;8.20;99.90;;;;;;5370243;26;20226;-72
2024/04/26 03:34:58;;;;;;;6.47;5.83;;;8.20;99.90;;;;;;5370761;26;20210;-72
2024/04/26 03:37:24;;;;;;;7.10;5.80;;;8.20;99.90;;;;;;5371020;26;20205;-72
2024/04/26 03:39:49;;;;;;;7.83;5.30;;;8.20;99.90;;;;;;5370749;26;20265;-72
2024/04/26 03:42:15;;;;;;;5.20;4.70;;;8.10;99.90;;;;;;5370485;26;20233;-72
2024/04/26 03:44:40;;;;;;;7.33;4.77;;;8.10;99.90;;;;;;5370798;26;20214;-72
2024/04/26 03:47:06;;;;;;;5.63;4.87;;;8.10;99.90;;;;;;5370776;26;20264;-73
2024/04/26 03:49:32;;;;;;;6.30;5.50;;;8.10;99.90;;;;;;5370753;26;20712;-72
2024/04/26 03:51:57;;;;;;;5.83;5.27;;;8.10;99.90;;;;;;5370529;26;20218;-72
2024/04/26 03:54:23;;;;;;;7.37;5.23;;;8.10;99.90;;;;;;5370980;26;20689;-72
2024/04/26 03:56:49;;;;;;;6.83;5.20;;;8.00;99.90;;;;;;5370557;26;20214;-71
2024/04/26 03:59:15;;;;;;;6.37;4.87;;;8.00;99.90;;;;;;5370503;26;20210;-71
2024/04/26 04:01:40;;;;;;;7.37;5.13;;;8.10;99.90;;;;;;5370652;26;20225;-71
2024/04/26 04:04:07;;;;;;;6.00;4.80;;;8.00;99.90;;;;;;5370801;26;20260;-72
2024/04/26 04:06:32;;;;;;;7.97;5.37;;;8.00;99.90;;;;;;5370373;26;20461;-71
2024/04/26 04:08:58;;;;;;;8.63;4.77;;;8.10;99.90;;;;;;5370408;26;20214;-72
2024/04/26 04:11:24;;;;;;;8.17;5.67;;;8.10;99.90;;;;;;5370338;26;20260;-71
2024/04/26 04:13:49;;;;;;;8.07;5.47;;;8.10;99.90;;;;;;5370397;26;20657;-71
2024/04/26 04:16:15;;;;;;;7.70;5.30;;;8.10;99.90;;;;;;5339817;26;20302;-72
2024/04/26 04:18:40;;;;;;;6.00;5.50;;;8.00;99.90;;;;;;5370427;26;20253;-71
2024/04/26 04:21:07;;;;;;;6.57;5.00;;;8.00;99.90;;;;;;5370065;26;20272;-71
2024/04/26 04:23:32;;;;;;;8.63;5.13;;;8.00;99.90;;;;;;5370618;26;20333;-71
2024/04/26 04:25:58;;;;;;;8.93;5.13;;;8.00;99.90;;;;;;5370902;26;20225;-71
2024/04/26 04:28:24;;;;;;;8.57;5.07;;;8.00;99.90;;;;;;5369985;26;20221;-71
2024/04/26 04:30:50;;;;;;;6.60;5.70;;;8.10;99.90;;;;;;5369548;26;20305;-71
2024/04/26 04:33:18;;;;;;;7.63;6.30;;;8.10;99.90;;;;;;5370144;26;20217;-72
2024/04/26 04:35:44;;;;;;;6.50;6.00;;;8.10;99.90;;;;;;5370500;26;20291;-72
2024/04/26 04:38:11;;;;;;;6.07;4.93;;;8.10;99.90;;;;;;5370478;26;20206;-71
2024/04/26 04:40:37;;;;;;;7.03;4.90;;;8.20;99.90;;;;;;5370251;26;20660;-71
2024/04/26 04:43:02;;;;;;;10.00;4.87;;;8.20;99.90;;;;;;5369338;26;20272;-71
2024/04/26 04:45:28;;;;;;;6.57;4.80;;;8.20;99.90;;;;;;5370232;26;20218;-71
2024/04/26 04:47:54;;;;;;;9.23;5.30;;;8.20;99.90;;;;;;5370098;26;20225;-71
2024/04/26 04:50:19;;;;;;;6.67;4.93;;;8.20;99.90;;;;;;5368507;26;20265;-71
2024/04/26 04:52:45;;;;;;;7.47;5.60;;;8.20;99.90;;;;;;5368287;26;20226;-71
2024/04/26 04:55:10;;;;;;;8.03;5.20;;;8.20;99.90;;;;;;5369544;26;20339;-71
2024/04/26 04:57:36;;;;;;;5.83;5.17;;;8.30;99.90;;;;;;5370313;26;20209;-74
2024/04/26 05:00:05;;;;;;;5.97;5.03;;;8.30;99.90;;;;;;5369491;26;20225;-71
2024/04/26 05:02:30;;;;;;;5.97;4.97;;;8.40;99.90;;;;;;5369403;26;20268;-71
2024/04/26 05:04:56;;;;;;;7.20;5.03;;;8.50;99.90;;;;;;5369229;26;20697;-71
2024/04/26 05:07:22;;;;;;;8.10;5.30;;;8.60;99.90;;;;;;5369310;26;20291;-71
2024/04/26 05:09:47;;;;;;;6.43;4.87;;;8.70;99.90;;;;;;5368709;26;20261;-71
2024/04/26 05:12:13;;;;;;;8.43;5.47;;;8.70;99.90;;;;;;5369243;26;20609;-71
2024/04/26 05:14:39;;;;;;;7.30;4.93;;;8.80;99.90;;;;;;5369038;26;20792;-71
2024/04/26 05:17:04;;;;;;;6.87;4.97;;;8.80;99.90;;;;;;5369026;26;20247;-71
2024/04/26 05:19:30;;;;;;;7.20;5.07;;;8.90;99.90;;;;;;5368906;26;20218;-71
2024/04/26 05:21:55;;;;;;;6.73;5.10;;;8.90;99.90;;;;;;5368846;26;20684;-71
2024/04/26 05:24:25;;;;;;;6.40;4.93;;;9.00;99.90;;;;;;5369049;26;20326;-71
2024/04/26 05:26:53;;;;;;;9.13;5.40;;;9.00;99.90;;;;;;5338006;26;20237;-71
2024/04/26 05:29:19;;;;;;;6.60;5.90;;;9.10;99.90;;;;;;5368695;26;20244;-71
2024/04/26 05:31:45;;;;;;;6.13;5.03;;;9.10;99.90;;;;;;5368546;26;20221;-71
2024/04/26 05:34:11;;;;;;;10.63;5.20;;;9.20;99.90;;;;;;5338025;26;20688;-71
2024/04/26 05:36:37;;;;;;;5.60;4.90;;;9.20;99.90;;;;;;5369038;26;20210;-72
2024/04/26 05:39:03;;;;;;;7.90;5.10;;;9.20;99.90;;;;;;5368617;26;20329;-71
2024/04/26 05:41:28;;;;;;;5.13;4.53;;;9.30;99.90;;;;;;5368830;26;20213;-71
2024/04/26 05:43:54;;;;;;;8.03;4.50;;;9.40;99.90;;;;;;5368443;26;20229;-71
2024/04/26 05:46:20;;;;;;;8.83;4.77;;;9.50;99.90;;;;;;5367257;26;20264;-71
2024/04/26 05:48:45;;;;;;;7.97;4.90;;;9.60;99.90;;;;;;5364916;26;20265;-72
2024/04/26 05:51:13;;;;;;;6.27;4.67;;;9.70;99.90;;;;;;5364315;26;20299;-73
2024/04/26 05:53:42;;;;;;;6.57;4.70;;;9.90;99.90;;;;;;5365486;26;20229;-71
2024/04/26 05:56:08;;;;;;;6.90;4.50;;;10.00;99.90;;;;;;5368685;26;20213;-71
2024/04/26 05:58:34;;;;;;;7.77;4.90;;;10.10;99.90;;;;;;5368886;26;20221;-71
2024/04/26 06:01:00;;;;;;;10.10;5.23;;;10.20;99.90;;;;;;5369175;26;20210;-71
2024/04/26 06:03:26;;;;;;;6.90;5.37;;;10.30;99.90;;;;;;5371968;26;20283;-72
2024/04/26 06:05:52;;;;;;;6.80;4.93;;;10.50;99.90;;;;;;5371961;26;20233;-71
2024/04/26 06:08:18;;;;;;;7.00;5.20;;;10.60;99.90;;;;;;5372208;26;20558;-71
2024/04/26 06:10:44;;;;;;;6.37;4.67;;;10.60;99.90;;;;;;5341476;26;20269;-72
2024/04/26 06:13:09;;;;;;;6.00;4.60;;;10.70;99.90;;;;;;5337325;26;20670;-71
2024/04/26 06:15:36;;;;;;;5.53;4.60;;;10.80;99.90;;;;;;5337019;26;20249;-72
2024/04/26 06:18:05;;;;;;;7.00;5.30;;;10.80;99.90;;;;;;5338335;26;20211;-71
2024/04/26 06:20:31;;;;;;;6.23;4.67;;;10.80;99.90;;;;;;5371841;26;20277;-71
2024/04/26 06:22:57;;;;;;;5.83;4.63;;;10.80;99.90;;;;;;5371503;26;20225;-70
2024/04/26 06:25:25;;;;;;;5.40;4.63;;;10.80;99.90;;;;;;5371840;26;20213;-71
2024/04/26 06:27:53;;;;;;;5.20;4.70;;;10.80;99.90;;;;;;5371687;26;20598;-71
2024/04/26 06:30:19;;;;;;;7.33;4.60;;;10.80;99.90;;;;;;5371177;26;20210;-71
2024/04/26 06:32:45;;;;;;;7.13;4.97;;;10.80;99.90;;;;;;5370861;26;20623;-71
2024/04/26 06:35:11;;;;;;;6.70;4.63;;;10.90;99.90;;;;;;5371407;26;20217;-71
2024/04/26 06:37:37;;;;;;;7.73;5.00;;;11.00;99.90;;;;;;5371603;26;20209;-71
2024/04/26 06:40:03;;;;;;;7.23;5.23;;;11.10;99.90;;;;;;5371133;26;20210;-71
2024/04/26 06:42:28;;;;;;;6.93;4.87;;;11.30;99.90;;;;;;5370979;26;20225;-71
2024/04/26 06:44:54;;;;;;;6.37;5.20;;;11.40;99.90;;;;;;5371474;26;20210;-71
2024/04/26 06:47:20;;;;;;;7.93;4.67;;;11.60;99.90;;;;;;5371720;26;20609;-71
2024/04/26 06:49:45;;;;;;;8.80;5.07;;;11.80;99.90;;;;;;5370921;26;20251;-71
2024/04/26 06:52:12;;;;;;;5.63;4.57;;;11.90;99.90;;;;;;5370666;26;20226;-71
2024/04/26 06:54:38;;;;;;;7.27;4.30;;;12.00;99.90;;;;;;5371158;26;20309;-71
2024/04/26 06:57:04;;;;;;;7.67;4.67;;;12.20;99.90;;;;;;5371142;26;20221;-72
2024/04/26 06:59:29;;;;;;;6.53;4.20;;;12.30;99.90;;;;;;5370723;26;20221;-71
2024/04/26 07:02:02;;;;;;;10.20;4.57;;;12.40;99.90;;;;;;5370362;26;20302;-72
2024/04/26 07:04:28;;;;;;;8.83;4.57;;;12.50;99.90;;;;;;5371127;26;20255;-71
2024/04/26 07:06:54;;;;;;;9.90;4.43;;;12.60;99.90;;;;;;5371164;26;20206;-72
2024/04/26 07:09:19;;;;;;;9.33;4.73;;;12.60;99.90;;;;;;5370288;26;20592;-72
2024/04/26 07:11:45;;;;;;;7.53;4.63;;;12.60;99.90;;;;;;5371507;26;20601;-72
2024/04/26 07:14:11;;;;;;;7.50;4.60;;;12.70;99.90;;;;;;5370821;26;20709;-72
2024/04/26 07:16:37;;;;;;;5.77;4.37;;;12.60;99.90;;;;;;5371246;26;20800;-71
2024/04/26 07:19:03;;;;;;;6.93;4.73;;;12.70;99.90;;;;;;5370217;26;20209;-72
2024/04/26 07:21:29;;;;;;;8.23;5.00;;;12.60;99.90;;;;;;5371064;26;20243;-72
2024/04/26 07:23:55;;;;;;;6.00;4.50;;;12.70;99.90;;;;;;5370625;26;20709;-72
2024/04/26 07:26:21;;;;;;;5.07;4.57;;;12.90;99.90;;;;;;5371178;26;20257;-72
2024/04/26 07:28:47;;;;;;;9.70;4.60;;;13.00;99.90;;;;;;5370939;26;20724;-72
2024/04/26 07:31:13;;;;;;;6.53;4.43;;;13.00;99.90;;;;;;5370417;26;20214;-72
2024/04/26 07:33:40;;;;;;;5.23;4.53;;;13.10;99.90;;;;;;5370712;26;20256;-72
2024/04/26 07:36:06;;;;;;;5.20;4.70;;;13.20;99.90;;;;;;5370971;26;20303;-71
2024/04/26 07:38:32;;;;;;;9.03;5.10;;;13.30;99.90;;;;;;5370820;26;20217;-72
2024/04/26 07:40:58;;;;;;;7.33;4.70;;;13.40;99.90;;;;;;5370154;26;20792;-71
2024/04/26 07:43:23;;;;;;;5.83;4.67;;;13.50;99.90;;;;;;5368706;26;20293;-72
2024/04/26 07:45:49;;;;;;;7.07;4.63;;;13.50;99.90;;;;;;5370597;26;20226;-72
2024/04/26 07:48:16;;;;;;;10.93;4.83;;;13.50;99.90;;;;;;5370614;26;20229;-72
2024/04/26 07:50:44;;;;;;;6.13;4.20;;;13.50;99.90;;;;;;5370515;26;20217;-72
2024/04/26 07:53:13;;;;;;;6.57;4.17;;;13.60;99.90;;;;;;5370420;26;20334;-72
2024/04/26 07:55:42;;;;;;;7.17;4.40;;;13.60;99.90;;;;;;5370413;26;20285;-72
2024/04/26 07:58:07;;;;;;;7.10;4.67;;;13.60;99.90;;;;;;5370459;26;20386;-72
2024/04/26 08:00:33;;;;;;;5.43;4.20;;;13.60;99.90;;;;;;5370610;26;20238;-72
2024/04/26 08:03:03;;;;;;;7.40;5.03;;;13.70;99.90;;;;;;5370098;26;20339;-72
2024/04/26 08:05:28;;;;;;;5.70;4.50;;;13.70;99.90;;;;;;5370616;26;20252;-72
2024/04/26 08:07:54;;;;;;;8.40;4.77;;;13.60;99.90;;;;;;5370661;26;20209;-72
2024/04/26 08:10:19;;;;;;;12.00;4.87;;;13.60;99.90;;;;;;5370242;26;20222;-72
2024/04/26 08:12:45;;;;;;;12.30;5.10;;;13.70;99.90;;;;;;5370166;26;20268;-72
2024/04/26 08:15:11;;;;;;;8.30;4.87;;;13.80;99.90;;;;;;5370222;26;20221;-72
2024/04/26 08:17:37;;;;;;;7.70;4.80;;;14.00;99.90;;;;;;5369391;26;20557;-72
2024/04/26 08:20:04;;;;;;;8.27;5.00;;;14.10;99.90;;;;;;5339540;26;20286;-72
2024/04/26 08:22:29;;;;;;;6.10;4.50;;;14.10;99.90;;;;;;5369916;26;20233;-72
2024/04/26 08:24:55;;;;;;;8.23;5.13;;;14.20;99.90;;;;;;5369788;26;20659;-72
2024/04/26 08:27:20;;;;;;;9.30;4.90;;;14.20;99.90;;;;;;5369839;26;20252;-75
2024/04/26 08:29:46;;;;;;;9.73;5.40;;;14.00;98.90;;;;;;5370246;26;20252;-72
2024/04/26 08:32:12;;;;;;;9.63;5.50;;;13.90;98.80;;;;;;5370270;26;20229;-73
2024/04/26 08:34:40;;;;;;;10.10;5.67;;;13.90;99.90;;;;;;5370166;26;20260;-73
2024/04/26 08:37:05;;;;;;;9.23;5.43;;;14.00;99.90;;;;;;5370159;26;20209;-73
2024/04/26 08:39:31;;;;;;;9.63;5.30;;;14.20;99.90;;;;;;5369197;26;20333;-73
2024/04/26 08:41:58;;;;;;;7.67;5.23;;;14.30;99.90;;;;;;5369365;26;20321;-73
2024/04/26 08:44:24;;;;;;;9.40;6.03;;;13.80;99.90;;;;;;5369360;26;20226;-72
2024/04/26 08:46:52;;;;;;;7.60;5.80;;;13.30;99.90;;;;;;5368736;26;20229;-72
2024/04/26 08:49:18;;;;;;;11.80;7.00;;;12.80;99.90;;;;;;5369992;26;20260;-72
2024/04/26 08:51:47;;;;;;;10.77;6.53;;;12.70;99.90;;;;;;5369545;26;20713;-72
2024/04/26 08:54:13;;;;;;;7.90;6.70;;;12.70;99.90;;;;;;5369334;26;20217;-73
2024/04/26 08:56:39;;;;;;;8.97;6.83;;;12.60;99.90;;;;;;5368527;26;20264;-73
2024/04/26 08:59:08;;;;;;;20.07;11.60;;;12.70;99.90;;;;;;5369240;26;20743;-72
2024/04/26 09:01:35;;;;;;;11.97;8.17;;;12.70;99.90;;;;;;5369279;26;20288;-73
2024/04/26 09:04:01;;;;;;;8.13;6.03;;;12.80;99.90;;;;;;5369105;26;20264;-73
2024/04/26 09:06:33;;;;;;;8.77;6.10;;;13.00;99.90;;;;;;5369729;26;20322;-73
2024/04/26 09:09:03;;;;;;;8.23;5.93;;;13.10;99.90;;;;;;5369743;26;20272;-73
2024/04/26 09:11:30;;;;;;;8.03;6.63;;;13.20;99.90;;;;;;5369769;26;20252;-73
2024/04/26 09:13:56;;;;;;;6.50;5.33;;;13.20;99.90;;;;;;5369277;26;20281;-73
2024/04/26 09:16:23;;;;;;;9.00;6.03;;;13.30;99.90;;;;;;5369105;26;20309;-72
2024/04/26 09:18:49;;;;;;;9.00;5.93;;;13.40;99.90;;;;;;5334098;26;20214;-73
2024/04/26 09:21:15;;;;;;;11.90;6.40;;;13.50;99.90;;;;;;5366329;26;20330;-73
2024/04/26 09:23:41;;;;;;;10.30;5.97;;;13.50;99.90;;;;;;5369410;26;20218;-73
2024/04/26 09:26:07;;;;;;;11.43;6.37;;;13.30;99.90;;;;;;5369542;26;20261;-73
2024/04/26 09:28:33;;;;;;;10.17;6.03;;;13.20;99.90;;;;;;5370022;26;20545;-72
2024/04/26 09:30:59;;;;;;;9.07;6.07;;;13.10;99.90;;;;;;5372725;26;20397;-73
2024/04/26 09:33:28;;;;;;;10.60;6.20;;;13.10;99.90;;;;;;5372588;26;20281;-73
2024/04/26 09:35:54;;;;;;;8.07;5.70;;;13.30;99.90;;;;;;5372996;26;20256;-73
2024/04/26 09:38:21;;;;;;;8.33;5.63;;;13.40;99.90;;;;;;5372405;26;20209;-72
2024/04/26 09:40:47;;;;;;;11.00;5.33;;;13.40;99.90;;;;;;5372359;26;20243;-73
2024/04/26 09:43:13;;;;;;;9.50;5.67;;;13.40;99.90;;;;;;5371288;26;20297;-73
2024/04/26 09:45:41;;;;;;;10.43;6.13;;;13.40;99.90;;;;;;5372287;26;20381;-72
2024/04/26 09:48:07;;;;;;;9.57;6.03;;;13.50;99.90;;;;;;5372037;26;20311;-73
2024/04/26 09:50:34;;;;;;;9.07;5.67;;;13.60;99.90;;;;;;5373204;26;20247;-73
2024/04/26 09:53:00;;;;;;;7.40;5.90;;;13.60;99.90;;;;;;5372356;26;20331;-73
2024/04/26 09:55:27;;;;;;;9.73;6.10;;;13.50;99.90;;;;;;5372551;26;20209;-73
2024/04/26 09:57:54;;;;;;;8.63;5.93;;;13.40;99.90;;;;;;5372695;26;20671;-73
2024/04/26 10:00:20;;;;;;;6.33;5.47;;;13.20;99.90;;;;;;5372004;26;20209;-73
2024/04/26 10:02:50;;;;;;;8.87;5.70;;;13.20;99.90;;;;;;5372135;26;20218;-73
2024/04/26 10:05:22;;;;;;;7.93;5.20;;;13.20;99.90;;;;;;5372180;26;20269;-72
2024/04/26 10:08:00;;;;;;;9.93;5.77;;;13.20;99.90;;;;;;5371986;26;20235;-73
2024/04/26 10:10:27;;;;;;;7.70;5.20;;;13.40;99.90;;;;;;5372224;26;20206;-73
2024/04/26 10:13:08;;;;;;;8.37;5.93;;;13.40;99.90;;;;;;5372186;26;20221;-73
2024/04/26 10:15:37;;;;;;;9.00;5.53;;;13.40;99.90;;;;;;5337191;26;20690;-72
2024/04/26 10:18:04;;;;;;;15.50;6.53;;;13.50;99.90;;;;;;5337363;26;20210;-72
2024/04/26 10:20:41;;;;;;;8.50;5.80;;;13.60;99.90;;;;;;5337404;26;20207;-73
2024/04/26 10:23:12;;;;;;;9.20;5.53;;;13.60;99.90;;;;;;5336813;26;20223;-73
2024/04/26 10:25:37;;;;;;;12.77;5.93;;;13.60;99.90;;;;;;5337710;26;20319;-72
2024/04/26 10:28:14;;;;;;;9.10;5.70;;;13.60;99.90;;;;;;5343536;26;20237;-72
2024/04/26 10:30:59;;;;;;;7.43;5.60;;;13.80;99.90;;;;;;5371821;26;20703;-72
2024/04/26 10:33:24;;;;;;;6.40;5.47;;;14.10;99.90;;;;;;5371690;26;20293;-73
2024/04/26 10:35:52;;;;;;;9.30;5.10;;;14.30;99.90;;;;;;5372407;26;20713;-72
2024/04/26 10:38:18;;;;;;;12.50;5.50;;;14.70;99.90;;;;;;5372094;26;20217;-72
2024/04/26 10:40:46;;;;;;;7.67;5.70;;;14.90;99.90;;;;;;5371460;26;20778;-73
2024/04/26 10:43:11;;;;;;;11.70;6.00;;;15.00;99.90;;;;;;5370818;26;20273;-73
2024/04/26 10:45:37;;;;;;;6.73;5.30;;;15.20;99.90;;;;;;5372496;26;20260;-72
2024/04/26 10:48:03;;;;;;;10.53;5.23;;;15.50;99.90;;;;;;5372134;26;20221;-72
2024/04/26 10:50:28;;;;;;;8.77;5.57;;;15.80;99.90;;;;;;5372532;26;20701;-73
2024/04/26 10:52:55;;;;;;;9.10;5.83;;;15.90;99.90;;;;;;5372301;26;20271;-72
2024/04/26 10:55:21;;;;;;;9.03;5.93;;;15.90;99.90;;;;;;5372655;26;20214;-72
2024/04/26 10:57:56;;;;;;;8.17;6.00;;;15.80;99.90;;;;;;5372178;26;20268;-73
2024/04/26 11:00:22;;;;;;;12.73;7.87;;;16.00;99.90;;;;;;5371895;26;20209;-72
2024/04/26 11:02:48;;;;;;;11.67;10.47;;;16.10;99.90;;;;;;5371911;26;20338;-73
2024/04/26 11:05:15;;;;;;;10.57;7.00;;;16.40;99.90;;;;;;5372009;26;20733;-73
2024/04/26 11:07:52;;;;;;;10.53;6.60;;;16.60;98.80;;;;;;5371833;26;20229;-72
2024/04/26 11:10:26;;;;;;;8.40;6.03;;;16.90;99.40;;;;;;5371421;26;20588;-73
2024/04/26 11:12:52;;;;;;;7.23;5.60;;;17.30;98.50;;;;;;5370844;26;20408;-73
2024/04/26 11:15:18;;;;;;;10.37;6.00;;;17.60;96.00;;;;;;5371336;26;20217;-72
2024/04/26 11:17:43;;;;;;;10.63;6.15;;;17.80;95.50;;;;;;5371842;26;20210;-73
2024/04/26 11:20:09;;;;;;;8.10;5.57;;;17.70;95.00;;;;;;5370432;26;20824;-72
2024/04/26 11:22:35;;;;;;;8.63;5.30;;;17.70;96.80;;;;;;5371199;26;20442;-72
2024/04/26 11:25:01;;;;;;;6.33;5.20;;;17.90;96.60;;;;;;5371492;26;20210;-72
2024/04/26 11:27:27;;;;;;;9.73;6.00;;;18.10;93.80;;;;;;5370774;26;20221;-73
2024/04/26 11:29:53;;;;;;;10.07;5.83;;;17.90;94.20;;;;;;5371082;26;20210;-73
2024/04/26 11:32:19;;;;;;;14.03;6.23;;;17.50;93.20;;;;;;5371322;26;20226;-72
2024/04/26 11:34:45;;;;;;;9.63;6.20;;;17.30;94.70;;;;;;5371545;26;20213;-72
2024/04/26 11:37:11;;;;;;;13.07;6.70;;;17.00;93.60;;;;;;5370982;26;20221;-72
2024/04/26 11:39:36;;;;;;;10.23;6.90;;;16.80;94.40;;;;;;5371171;26;20210;-73
2024/04/26 11:42:02;;;;;;;8.30;6.13;;;16.70;94.30;;;;;;5371043;26;20761;-73
2024/04/26 11:44:28;;;;;;;11.40;6.27;;;16.80;96.90;;;;;;5371429;26;20305;-72
2024/04/26 11:46:54;;;;;;;8.10;6.50;;;17.10;97.20;;;;;;5371433;26;20712;-73
2024/04/26 11:49:19;;;;;;;10.70;6.27;;;17.00;94.20;;;;;;5370877;26;20260;-73
2024/04/26 11:51:46;;;;;;;10.27;6.50;;;16.90;95.20;;;;;;5369081;26;20560;-73
2024/04/26 11:54:12;;;;;;;7.50;6.10;;;17.10;95.50;;;;;;5370750;26;20347;-72
2024/04/26 11:56:39;;;;;;;11.60;6.20;;;17.30;95.70;;;;;;5371099;26;20681;-73
2024/04/26 11:59:08;;;;;;;11.03;6.43;;;17.60;99.40;;;;;;5370942;26;20209;-72
2024/04/26 12:01:33;;;;;;;8.30;6.43;;;17.90;97.90;;;;;;5371092;26;20302;-72
2024/04/26 12:03:59;;;;;;;10.33;6.30;;;18.10;92.80;;;;;;5370669;26;20229;-72
2024/04/26 12:06:26;;;;;;;12.67;6.50;;;18.00;94.60;;;;;;5371376;26;20685;-73
2024/04/26 12:08:52;;;;;;;11.93;6.70;;;18.00;95.80;;;;;;5370793;26;20217;-73
2024/04/26 12:11:17;;;;;;;9.83;6.30;;;18.00;92.60;;;;;;5370329;26;20775;-72
2024/04/26 12:13:45;;;;;;;11.33;6.37;;;17.50;93.10;;;;;;5370822;26;20573;-72
2024/04/26 12:16:14;;;;;;;7.90;6.43;;;17.30;93.80;;;;;;5370957;26;20366;-72
2024/04/26 12:18:40;;;;;;;11.10;6.97;;;17.30;96.50;;;;;;5370540;26;20241;-72
2024/04/26 12:21:17;;;;;;;8.30;6.53;;;17.10;93.40;;;;;;5339884;26;20775;-73
2024/04/26 12:23:43;;;;;;;9.93;6.53;;;17.00;97.50;;;;;;5370305;26;20747;-73
2024/04/26 12:26:24;;;;;;;11.93;6.67;;;16.90;96.00;;;;;;5370727;26;20210;-72
2024/04/26 12:28:51;;;;;;;9.93;7.00;;;16.80;99.70;;;;;;5371486;26;20214;-72
2024/04/26 12:31:20;;;;;;;11.97;7.00;;;17.00;98.00;;;;;;5370668;26;20260;-72
2024/04/26 12:33:46;;;;;;;10.23;7.07;;;17.00;99.80;;;;;;5370468;26;20799;-73
2024/04/26 12:36:12;;;;;;;8.23;6.33;;;17.10;99.90;;;;;;5369809;26;20338;-72
2024/04/26 12:38:38;;;;;;;10.67;7.77;;;17.10;99.70;;;;;;5370472;26;20264;-72
2024/04/26 12:41:04;;;;;;;10.87;7.80;;;17.00;99.00;;;;;;5369734;26;20215;-72
2024/04/26 12:43:30;;;;;;;11.93;7.17;;;17.00;98.50;;;;;;5369858;26;20258;-72
2024/04/26 12:45:55;;;;;;;9.20;7.37;;;16.90;99.90;;;;;;5370784;26;20214;-73